FMMI/TNR METAR and TAF weather

Enter ICAO airport designator
Station Type Date Time Source
FMMI METAR 2020/09/21 09:30 UTC NOAA

FMMI 210930Z 10011KT 050V160 9999 BKN023 22/10 Q1023 NOSIG


Station Type Date Time Source
FMMI Decoded METAR 2020/09/21 09:30 UTC NOAA

Antananarivo / Ivato, Madagascar (FMMI) 18-48S 047-29E 1276M
Sep 21, 2020 - 05:30 AM EDT / 2020.09.21 0930 UTC
Wind: from the E (100 degrees) at 13 MPH (11 KT) (direction variable):0
Visibility: greater than 7 mile(s):0
Sky conditions: mostly cloudy
Temperature: 71 F (22 C)
Dew Point: 50 F (10 C)
Relative Humidity: 46%
Pressure (altimeter): 30.21 in. Hg (1023 hPa)
ob: FMMI 210930Z 10011KT 050V160 9999 BKN023 22/10 Q1023 NOSIG
cycle: 9

Station Type Date Time Source
FMMI TAF 2020/09/21 06:12 UTC NOAA

FMMI 210500Z 2106/2212 VRB04KT 9999 FEW020 PROB40 2200/2206 0800 FG BKN004

Example: see airport list